Terminal Aerodrome Forecast
Issued by NWS

Home | Current Version | Previous Version | Text Only | Print | Product List | Glossary On
Versions: 1 2 3 4 5 6 7 8 9 10 11 12 13 14 15 16 17 18
498
FTUS46 KMFR 292333
TAFOTH
TAF
KOTH 292333Z 3000/3024 35011G16KT P6SM -SHRA BKN018 BKN060
     FM300300 36009KT P6SM BKN020
     FM300600 VRB03KT P6SM SCT015 BKN025
     FM301700 35012KT P6SM SCT025
     FM302000 36018G25KT P6SM SCT040=

USA.gov is the U.S. government's official web portal to all federal, state and local government web resources and services.